createdAt,value
2018-03-01T00:00:00.711Z,38.40
2018-03-01T00:02:29.685Z,38.50
2018-03-01T00:04:57.124Z,38.50
2018-03-01T00:07:25.661Z,38.70
2018-03-01T00:09:53.155Z,38.70
2018-03-01T00:12:20.703Z,38.40
2018-03-01T00:14:48.860Z,38.50
2018-03-01T00:17:16.383Z,38.40
2018-03-01T00:19:44.182Z,38.50
2018-03-01T00:22:12.018Z,38.70
2018-03-01T00:24:40.264Z,38.70
2018-03-01T00:27:08.041Z,38.70
2018-03-01T00:29:36.530Z,38.70
2018-03-01T00:32:04.242Z,38.70
2018-03-01T00:34:33.012Z,38.60
2018-03-01T00:37:06.461Z,38.80
2018-03-01T00:39:35.461Z,38.80
2018-03-01T00:42:02.964Z,38.80
2018-03-01T00:44:31.357Z,39.00
2018-03-01T00:46:59.773Z,39.00
2018-03-01T00:49:27.288Z,38.90
2018-03-01T00:51:56.817Z,39.00
2018-03-01T00:54:26.934Z,39.10
2018-03-01T00:59:32.000Z,39.10
2018-03-01T01:02:01.238Z,39.10
2018-03-01T01:04:36.831Z,39.10
2018-03-01T01:07:11.200Z,39.10
2018-03-01T01:09:42.513Z,39.10
2018-03-01T01:12:11.941Z,39.10
2018-03-01T01:14:44.285Z,39.10
2018-03-01T01:17:19.063Z,39.10
2018-03-01T01:19:50.707Z,39.20
2018-03-01T01:22:22.351Z,39.30
2018-03-01T01:24:53.347Z,39.30
2018-03-01T01:27:20.889Z,39.30
2018-03-01T01:29:49.214Z,41.00
2018-03-01T01:32:16.874Z,41.00
2018-03-01T01:34:46.061Z,40.50
2018-03-01T01:37:13.862Z,39.70
2018-03-01T01:39:43.614Z,39.30
2018-03-01T01:42:16.201Z,39.30
2018-03-01T01:44:44.091Z,39.30
2018-03-01T01:47:18.205Z,39.10
2018-03-01T01:49:50.398Z,39.30
2018-03-01T01:52:21.605Z,39.50
2018-03-01T01:54:51.795Z,39.60
2018-03-01T01:57:19.521Z,39.50
2018-03-01T01:59:48.042Z,39.60
2018-03-01T02:02:15.485Z,39.60
2018-03-01T02:04:42.996Z,39.60
2018-03-01T02:07:11.366Z,39.80
2018-03-01T02:09:40.113Z,39.70
2018-03-01T02:12:07.568Z,39.70
2018-03-01T02:14:35.633Z,39.60
2018-03-01T02:17:03.106Z,39.70
2018-03-01T02:19:31.021Z,39.60
2018-03-01T02:21:58.574Z,39.80
2018-03-01T02:24:26.079Z,39.90
2018-03-01T02:26:53.599Z,40.00
2018-03-01T02:29:21.141Z,40.10
2018-03-01T02:31:48.606Z,40.20
2018-03-01T02:34:16.462Z,40.10
2018-03-01T02:36:44.230Z,40.20
2018-03-01T02:39:12.504Z,40.20
2018-03-01T02:41:40.091Z,40.30
2018-03-01T02:44:07.679Z,40.40
2018-03-01T02:46:35.236Z,41.60
2018-03-01T02:49:02.848Z,40.90
2018-03-01T02:51:31.104Z,40.90
2018-03-01T02:53:58.688Z,40.80
2018-03-01T02:56:26.663Z,40.70
2018-03-01T02:58:54.422Z,40.60
2018-03-01T03:01:22.740Z,40.70
2018-03-01T03:03:50.355Z,40.70
2018-03-01T03:06:18.970Z,40.90
2018-03-01T03:08:46.699Z,40.90
2018-03-01T03:11:14.401Z,40.90
2018-03-01T03:13:41.934Z,41.00
2018-03-01T03:16:10.957Z,40.90
2018-03-01T03:18:41.900Z,40.90
2018-03-01T03:21:11.314Z,41.00
2018-03-01T03:23:38.788Z,41.00
2018-03-01T03:26:06.248Z,41.00
2018-03-01T03:28:34.067Z,41.00
2018-03-01T03:31:01.588Z,41.10
2018-03-01T03:33:29.094Z,41.10
2018-03-01T03:35:56.890Z,40.90
2018-03-01T03:38:24.361Z,40.90
2018-03-01T03:40:52.125Z,40.80
2018-03-01T03:43:19.634Z,40.90
2018-03-01T03:45:47.106Z,40.90
2018-03-01T03:48:14.577Z,41.00
2018-03-01T03:50:42.450Z,41.30
2018-03-01T03:53:09.929Z,41.40
2018-03-01T03:55:38.485Z,41.50
2018-03-01T03:58:06.314Z,41.50
2018-03-01T04:00:33.775Z,41.70
2018-03-01T04:03:01.327Z,41.80
2018-03-01T04:05:28.790Z,41.70
2018-03-01T04:07:56.256Z,41.80
2018-03-01T04:10:23.707Z,41.70
2018-03-01T04:12:51.256Z,41.80
2018-03-01T04:15:19.326Z,41.80
2018-03-01T04:17:46.783Z,41.70
2018-03-01T04:20:14.894Z,41.60
2018-03-01T04:22:42.333Z,41.60
2018-03-01T04:25:10.013Z,41.60
2018-03-01T04:27:37.880Z,41.70
2018-03-01T04:30:05.549Z,41.70
2018-03-01T04:32:32.996Z,42.30
2018-03-01T04:35:00.997Z,41.70
2018-03-01T04:37:29.215Z,41.80
2018-03-01T04:39:56.999Z,41.70
2018-03-01T04:42:24.973Z,41.60
2018-03-01T04:44:52.623Z,41.60
2018-03-01T04:47:20.065Z,41.50
2018-03-01T04:49:47.542Z,41.40
2018-03-01T04:52:15.206Z,41.60
2018-03-01T04:54:43.104Z,41.60
2018-03-01T04:57:11.539Z,41.80
2018-03-01T04:59:38.993Z,41.70
2018-03-01T05:02:06.471Z,41.80
2018-03-01T05:04:33.926Z,41.90
2018-03-01T05:07:01.396Z,41.90
2018-03-01T05:09:28.877Z,42.40
2018-03-01T05:11:56.690Z,41.90
2018-03-01T05:14:24.181Z,42.00
2018-03-01T05:16:51.926Z,41.90
2018-03-01T05:19:19.462Z,41.90
2018-03-01T05:21:47.332Z,41.90
2018-03-01T05:24:14.857Z,41.90
2018-03-01T05:26:43.218Z,42.00
2018-03-01T05:29:11.989Z,42.60
2018-03-01T05:31:39.504Z,42.10
2018-03-01T05:34:07.283Z,42.10
2018-03-01T05:36:36.084Z,42.10
2018-03-01T05:39:03.623Z,42.10
2018-03-01T05:41:31.505Z,42.10
2018-03-01T05:43:58.945Z,41.90
2018-03-01T05:46:26.401Z,41.90
2018-03-01T05:48:53.982Z,41.90
2018-03-01T05:51:21.436Z,42.00
2018-03-01T05:53:48.995Z,41.90
2018-03-01T05:56:17.004Z,41.90
2018-03-01T05:58:44.612Z,42.00
2018-03-01T06:01:12.070Z,41.90
2018-03-01T06:03:39.529Z,41.90
2018-03-01T06:06:07.036Z,42.00
2018-03-01T06:08:34.608Z,42.10
2018-03-01T06:11:02.052Z,42.10
2018-03-01T06:13:30.062Z,42.10
2018-03-01T06:15:57.840Z,42.10
2018-03-01T06:18:25.313Z,42.20
2018-03-01T06:20:53.940Z,42.30
2018-03-01T06:23:21.417Z,42.20
2018-03-01T06:25:48.867Z,42.20
2018-03-01T06:28:17.550Z,42.20
2018-03-01T06:30:44.984Z,42.30
2018-03-01T06:33:12.481Z,42.20
2018-03-01T06:35:40.560Z,42.00
2018-03-01T06:38:08.041Z,41.80
2018-03-01T06:40:36.045Z,41.80
2018-03-01T06:43:03.649Z,42.20
2018-03-01T06:45:31.087Z,41.80
2018-03-01T06:47:58.546Z,41.90
2018-03-01T06:50:26.148Z,42.00
2018-03-01T06:52:54.398Z,42.00
2018-03-01T06:55:22.452Z,42.00
2018-03-01T06:57:50.284Z,41.80
2018-03-01T07:00:17.732Z,41.80
2018-03-01T07:02:45.176Z,41.80
2018-03-01T07:05:13.522Z,41.90
2018-03-01T07:07:41.009Z,42.00
2018-03-01T07:10:09.221Z,42.00
2018-03-01T07:12:37.861Z,42.00
2018-03-01T07:15:06.066Z,41.90
2018-03-01T07:17:34.175Z,41.80
2018-03-01T07:20:01.622Z,41.80
2018-03-01T07:22:29.568Z,41.80
2018-03-01T07:24:57.566Z,41.80
2018-03-01T07:27:25.301Z,41.80
2018-03-01T07:29:52.753Z,41.80
2018-03-01T07:32:20.310Z,41.70
2018-03-01T07:34:48.327Z,41.60
2018-03-01T07:37:15.800Z,41.40
2018-03-01T07:39:43.753Z,41.60
2018-03-01T07:42:11.268Z,41.80
2018-03-01T07:44:38.728Z,41.70
2018-03-01T07:47:06.178Z,41.60
2018-03-01T07:49:33.778Z,41.50
2018-03-01T07:52:01.226Z,41.50
2018-03-01T07:54:28.786Z,41.40
2018-03-01T07:56:56.885Z,41.50
2018-03-01T07:59:25.343Z,41.60
2018-03-01T08:01:52.788Z,41.60
2018-03-01T08:04:20.350Z,41.30
2018-03-01T08:06:47.876Z,41.20
2018-03-01T08:09:15.580Z,41.10
2018-03-01T08:11:43.070Z,41.20
2018-03-01T08:14:11.548Z,40.60
2018-03-01T08:16:40.379Z,40.30
2018-03-01T08:19:07.825Z,40.30
2018-03-01T08:21:35.725Z,40.30
2018-03-01T08:24:03.161Z,40.10
2018-03-01T08:30:01.826Z,40.30
2018-03-01T08:32:30.082Z,40.20
2018-03-01T08:34:59.052Z,39.90
2018-03-01T08:37:26.616Z,39.90
2018-03-01T08:39:54.474Z,42.40
2018-03-01T08:42:21.917Z,46.00
2018-03-01T08:44:49.383Z,44.20
2018-03-01T08:47:17.304Z,40.20
2018-03-01T08:49:44.777Z,39.40
2018-03-01T08:52:12.236Z,39.00
2018-03-01T08:54:40.409Z,38.70
2018-03-01T08:57:07.864Z,38.40
2018-03-01T08:59:35.369Z,38.40
2018-03-01T09:02:03.154Z,38.40
2018-03-01T09:04:31.393Z,38.50
2018-03-01T09:06:58.842Z,38.50
2018-03-01T09:09:26.306Z,38.00
2018-03-01T09:11:53.878Z,37.00
2018-03-01T09:14:21.394Z,37.20
2018-03-01T09:16:49.597Z,36.70
2018-03-01T09:19:17.068Z,36.50
2018-03-01T09:21:44.819Z,36.30
2018-03-01T09:24:12.861Z,36.10
2018-03-01T09:26:40.316Z,35.70
2018-03-01T09:29:07.816Z,35.10
2018-03-01T09:31:35.568Z,34.40
2018-03-01T09:34:03.532Z,34.20
2018-03-01T09:36:31.221Z,33.60
2018-03-01T09:38:59.540Z,33.60
2018-03-01T09:41:27.633Z,33.60
2018-03-01T09:43:55.156Z,33.80
2018-03-01T09:46:23.209Z,33.60
2018-03-01T09:48:51.733Z,33.20
2018-03-01T09:51:19.206Z,33.00
2018-03-01T09:53:46.680Z,32.40
2018-03-01T09:56:14.898Z,32.10
2018-03-01T09:58:42.346Z,32.20
2018-03-01T10:01:09.853Z,32.80
2018-03-01T10:03:37.329Z,32.50
2018-03-01T10:06:05.257Z,32.20
2018-03-01T10:08:33.532Z,31.90
2018-03-01T10:11:01.746Z,30.90
2018-03-01T10:13:29.220Z,30.90
2018-03-01T10:15:56.708Z,31.00
2018-03-01T10:18:25.466Z,31.20
2018-03-01T10:20:52.941Z,31.20
2018-03-01T10:23:20.591Z,30.40
2018-03-01T10:25:48.087Z,30.00
2018-03-01T10:28:16.298Z,30.40
2018-03-01T10:30:43.971Z,30.30
2018-03-01T10:33:11.754Z,30.70
2018-03-01T10:35:39.522Z,30.50
2018-03-01T10:38:07.754Z,29.10
2018-03-01T10:40:35.667Z,29.00
2018-03-01T10:43:04.969Z,28.90
2018-03-01T10:45:32.822Z,28.90
2018-03-01T10:48:00.341Z,28.40
2018-03-01T10:50:27.846Z,29.00
2018-03-01T10:52:55.702Z,28.30
2018-03-01T10:55:23.581Z,28.50
2018-03-01T10:57:51.846Z,28.80
2018-03-01T11:00:25.089Z,28.30
2018-03-01T11:02:52.793Z,28.90
2018-03-01T11:05:20.234Z,28.50
2018-03-01T11:07:48.206Z,28.30
2018-03-01T11:10:15.781Z,27.70
2018-03-01T11:12:43.248Z,27.40
2018-03-01T11:15:11.527Z,28.10
2018-03-01T11:17:39.472Z,27.60
2018-03-01T11:20:06.945Z,27.30
2018-03-01T11:22:34.866Z,27.30
2018-03-01T11:25:02.351Z,27.20
2018-03-01T11:27:29.800Z,26.50
2018-03-01T11:29:57.852Z,26.80
2018-03-01T11:32:25.887Z,26.40
2018-03-01T11:34:54.761Z,25.80
2018-03-01T11:37:22.222Z,25.80
2018-03-01T11:39:50.790Z,26.30
2018-03-01T11:42:18.266Z,26.10
2018-03-01T11:44:46.469Z,26.30
2018-03-01T11:47:13.941Z,26.30
2018-03-01T11:49:41.860Z,25.80
2018-03-01T11:52:09.509Z,26.00
2018-03-01T11:54:37.674Z,26.10
2018-03-01T11:57:05.151Z,25.80
2018-03-01T11:59:33.158Z,25.90
2018-03-01T12:02:00.654Z,26.30
2018-03-01T12:04:28.633Z,26.20
2018-03-01T12:06:56.486Z,25.90
2018-03-01T12:09:23.954Z,25.70
2018-03-01T12:11:51.402Z,25.80
2018-03-01T12:14:18.900Z,25.50
2018-03-01T12:16:47.193Z,26.70
2018-03-01T12:19:15.104Z,26.70
2018-03-01T12:21:44.001Z,25.70
2018-03-01T12:24:13.053Z,25.50
2018-03-01T12:26:40.844Z,25.60
2018-03-01T12:29:08.285Z,25.10
2018-03-01T12:31:36.101Z,25.20
2018-03-01T12:34:03.920Z,24.70
2018-03-01T12:36:31.700Z,24.50
2018-03-01T12:38:59.152Z,24.70
2018-03-01T12:41:27.017Z,24.40
2018-03-01T12:43:54.480Z,24.60
2018-03-01T12:46:21.943Z,24.40
2018-03-01T12:48:49.379Z,24.00
2018-03-01T12:51:16.840Z,24.10
2018-03-01T12:53:44.297Z,23.70
2018-03-01T12:56:12.176Z,23.70
2018-03-01T12:58:40.158Z,23.90
2018-03-01T13:01:07.624Z,24.10
2018-03-01T13:03:35.909Z,23.70
2018-03-01T13:06:04.180Z,23.80
2018-03-01T13:08:31.681Z,23.80
2018-03-01T13:11:00.361Z,23.20
2018-03-01T13:13:28.361Z,23.10
2018-03-01T13:15:55.833Z,23.30
2018-03-01T13:18:23.744Z,23.60
2018-03-01T13:20:51.230Z,23.60
2018-03-01T13:23:19.228Z,24.20
2018-03-01T13:25:46.673Z,24.10
2018-03-01T13:28:14.843Z,23.70
2018-03-01T13:30:43.831Z,24.00
2018-03-01T13:33:15.926Z,24.70
2018-03-01T13:35:43.927Z,24.00
2018-03-01T13:38:11.361Z,23.10
2018-03-01T13:40:40.015Z,23.90
2018-03-01T13:43:07.485Z,23.90
2018-03-01T13:45:38.896Z,24.00
2018-03-01T13:48:06.452Z,24.10
2018-03-01T13:50:34.600Z,24.20
2018-03-01T13:53:02.073Z,24.80
2018-03-01T13:55:35.472Z,25.20
2018-03-01T13:58:02.939Z,25.00
2018-03-01T14:00:30.696Z,24.90
2018-03-01T14:02:58.804Z,24.90
2018-03-01T14:05:26.278Z,25.00
2018-03-01T14:07:57.473Z,25.10
2018-03-01T14:10:24.961Z,25.10
2018-03-01T14:12:58.209Z,24.70
2018-03-01T14:15:25.807Z,24.70
2018-03-01T14:17:59.744Z,24.50
2018-03-01T14:20:33.926Z,24.20
2018-03-01T14:23:08.110Z,24.20
2018-03-01T14:25:36.240Z,24.70
2018-03-01T14:28:12.116Z,23.60
2018-03-01T14:30:39.667Z,23.60
2018-03-01T14:33:07.891Z,23.20
2018-03-01T14:35:35.880Z,23.20
2018-03-01T14:38:03.341Z,23.10
2018-03-01T14:40:31.360Z,23.10
2018-03-01T14:42:58.793Z,22.90
2018-03-01T14:45:26.255Z,23.20
2018-03-01T14:47:53.748Z,22.80
2018-03-01T14:50:21.210Z,23.00
2018-03-01T14:52:48.773Z,23.00
2018-03-01T14:55:16.791Z,23.00
2018-03-01T14:57:45.455Z,23.60
2018-03-01T15:00:13.652Z,23.60
2018-03-01T15:02:41.172Z,23.70
2018-03-01T15:05:08.694Z,24.00
2018-03-01T15:07:36.151Z,23.60
2018-03-01T15:10:03.752Z,23.40
2018-03-01T15:12:31.251Z,23.30
2018-03-01T15:14:58.741Z,23.40
2018-03-01T15:17:26.204Z,23.10
2018-03-01T15:19:54.072Z,23.30
2018-03-01T15:22:21.980Z,23.60
2018-03-01T15:24:50.262Z,23.70
2018-03-01T15:27:18.078Z,23.70
2018-03-01T15:29:46.397Z,23.80
2018-03-01T15:32:14.809Z,24.10
2018-03-01T15:34:43.637Z,24.50
2018-03-01T15:37:11.089Z,24.50
2018-03-01T15:39:38.862Z,24.90
2018-03-01T15:42:06.338Z,24.80
2018-03-01T15:44:34.596Z,24.40
2018-03-01T15:47:02.542Z,24.30
2018-03-01T15:49:29.994Z,24.20
2018-03-01T15:51:57.435Z,24.50
2018-03-01T15:54:25.610Z,24.90
2018-03-01T15:56:53.281Z,24.60
2018-03-01T15:59:21.500Z,24.40
2018-03-01T16:01:49.857Z,24.20
2018-03-01T16:04:17.304Z,24.20
2018-03-01T16:06:45.091Z,24.10
2018-03-01T16:09:12.533Z,24.20
2018-03-01T16:11:39.979Z,24.40
2018-03-01T16:14:07.521Z,24.50
2018-03-01T16:16:34.962Z,24.60
2018-03-01T16:19:03.105Z,24.90
2018-03-01T16:21:30.560Z,25.40
2018-03-01T16:23:58.980Z,25.50
2018-03-01T16:26:26.427Z,25.40
2018-03-01T16:28:54.230Z,25.40
2018-03-01T16:31:22.055Z,25.60
2018-03-01T16:33:49.954Z,25.80
2018-03-01T16:36:17.920Z,26.00
2018-03-01T16:38:45.404Z,26.10
2018-03-01T16:41:13.867Z,26.40
2018-03-01T16:43:41.342Z,26.30
2018-03-01T16:46:09.902Z,26.70
2018-03-01T16:48:37.424Z,26.70
2018-03-01T16:51:04.984Z,26.90
2018-03-01T16:53:32.473Z,27.10
2018-03-01T16:56:00.260Z,27.30
2018-03-01T16:58:28.498Z,27.80
2018-03-01T17:00:56.036Z,27.70
2018-03-01T17:03:23.743Z,27.90
2018-03-01T17:05:51.234Z,27.90
2018-03-01T17:08:18.717Z,28.00
2018-03-01T17:10:46.258Z,28.30
2018-03-01T17:13:13.744Z,28.30
2018-03-01T17:15:43.170Z,27.90
2018-03-01T17:18:10.621Z,27.90
2018-03-01T17:20:38.303Z,28.00
2018-03-01T17:23:06.984Z,28.80
2018-03-01T17:25:35.059Z,28.30
2018-03-01T17:28:02.535Z,28.20
2018-03-01T17:30:30.778Z,28.30
2018-03-01T17:32:58.980Z,28.90
2018-03-01T17:35:26.917Z,28.50
2018-03-01T17:37:54.435Z,28.60
2018-03-01T17:40:22.432Z,28.90
2018-03-01T17:42:50.205Z,29.10
2018-03-01T17:45:17.665Z,29.20
2018-03-01T17:47:45.121Z,29.30
2018-03-01T17:50:12.667Z,29.40
2018-03-01T17:52:40.125Z,29.40
2018-03-01T17:55:07.925Z,29.30
2018-03-01T17:57:35.374Z,29.40
2018-03-01T18:00:04.044Z,29.30
2018-03-01T18:02:31.509Z,29.30
2018-03-01T18:04:59.737Z,29.60
2018-03-01T18:07:27.449Z,29.50
2018-03-01T18:09:54.938Z,29.60
2018-03-01T18:12:22.512Z,29.30
2018-03-01T18:14:50.755Z,29.60
2018-03-01T18:17:18.958Z,29.60
2018-03-01T18:19:47.466Z,29.60
2018-03-01T18:22:14.902Z,29.60
2018-03-01T18:24:42.734Z,29.60
2018-03-01T18:27:10.979Z,29.60
2018-03-01T18:29:38.461Z,29.60
2018-03-01T18:32:06.722Z,29.70
2018-03-01T18:34:34.949Z,29.60
2018-03-01T18:37:02.359Z,29.70
2018-03-01T18:39:31.256Z,29.90
2018-03-01T18:41:59.524Z,29.90
2018-03-01T18:44:26.996Z,29.80
2018-03-01T18:46:55.242Z,29.80
2018-03-01T18:49:22.697Z,29.80
2018-03-01T18:51:50.176Z,29.70
2018-03-01T18:54:18.825Z,29.80
2018-03-01T18:56:47.339Z,29.80
2018-03-01T18:59:15.561Z,29.90
2018-03-01T19:01:43.011Z,29.90
2018-03-01T19:04:10.717Z,29.80
2018-03-01T19:06:38.200Z,29.90
2018-03-01T19:09:06.509Z,29.80
2018-03-01T19:11:33.994Z,29.80
2018-03-01T19:14:01.868Z,29.90
2018-03-01T19:16:29.335Z,29.90
2018-03-01T19:18:56.842Z,30.00
2018-03-01T19:21:24.649Z,30.50
2018-03-01T19:23:52.848Z,29.90
2018-03-01T19:26:21.155Z,30.00
2018-03-01T19:28:48.813Z,30.00
2018-03-01T19:31:16.282Z,30.00
2018-03-01T19:33:44.261Z,30.50
2018-03-01T19:36:12.275Z,30.10
2018-03-01T19:38:40.505Z,30.30
2018-03-01T19:41:09.434Z,30.00
2018-03-01T19:43:36.994Z,30.20
2018-03-01T19:46:04.492Z,30.90
2018-03-01T19:48:31.968Z,30.30
2018-03-01T19:50:59.519Z,30.50
2018-03-01T19:53:27.009Z,30.60
2018-03-01T19:55:54.787Z,30.60
2018-03-01T19:58:23.619Z,30.80
2018-03-01T20:00:51.233Z,30.70
2018-03-01T20:03:19.496Z,31.40
2018-03-01T20:05:46.936Z,30.70
2018-03-01T20:08:14.456Z,30.80
2018-03-01T20:10:41.913Z,30.70
2018-03-01T20:13:09.536Z,30.70
2018-03-01T20:15:37.026Z,30.50
2018-03-01T20:18:04.587Z,30.70
2018-03-01T20:20:32.596Z,30.70
2018-03-01T20:23:00.505Z,30.70
2018-03-01T20:25:28.959Z,30.80
2018-03-01T20:27:56.853Z,30.70
2018-03-01T20:30:25.059Z,30.60
2018-03-01T20:32:52.545Z,30.60
2018-03-01T20:35:20.376Z,30.60
2018-03-01T20:37:47.878Z,30.60
2018-03-01T20:40:17.273Z,30.70
2018-03-01T20:42:44.958Z,30.60
2018-03-01T20:45:12.435Z,30.90
2018-03-01T20:47:41.088Z,31.00
2018-03-01T20:50:08.579Z,32.00
2018-03-01T20:52:36.512Z,31.70
2018-03-01T20:55:04.438Z,31.90
2018-03-01T20:57:31.883Z,31.50
2018-03-01T21:00:00.449Z,31.10
2018-03-01T21:02:27.914Z,31.10
2018-03-01T21:04:55.777Z,31.00
2018-03-01T21:07:23.225Z,31.30
2018-03-01T21:09:50.914Z,31.30
2018-03-01T21:12:18.525Z,31.20
2018-03-01T21:14:46.226Z,31.30
2018-03-01T21:17:13.693Z,31.40
2018-03-01T21:19:41.295Z,31.60
2018-03-01T21:22:09.165Z,32.00
2018-03-01T21:24:36.734Z,31.80
2018-03-01T21:27:06.197Z,31.80
2018-03-01T21:29:33.644Z,31.80
2018-03-01T21:32:01.303Z,31.90
2018-03-01T21:34:29.184Z,31.80
2018-03-01T21:36:57.445Z,33.90
2018-03-01T21:39:26.429Z,33.40
2018-03-01T21:41:53.901Z,33.30
2018-03-01T21:44:21.375Z,33.70
2018-03-01T21:47:01.967Z,32.10
2018-03-01T21:49:29.410Z,32.10
2018-03-01T21:51:57.082Z,32.10
2018-03-01T21:54:24.906Z,32.30
2018-03-01T21:56:53.157Z,32.30
2018-03-01T21:59:20.734Z,32.60
2018-03-01T22:01:48.189Z,32.60
2018-03-01T22:04:16.489Z,33.00
2018-03-01T22:06:44.708Z,32.90
2018-03-01T22:09:13.021Z,32.80
2018-03-01T22:11:40.666Z,32.90
2018-03-01T22:14:08.153Z,33.20
2018-03-01T22:16:36.480Z,33.20
2018-03-01T22:19:04.662Z,33.10
2018-03-01T22:21:32.752Z,33.30
2018-03-01T22:24:00.227Z,33.50
2018-03-01T22:26:28.204Z,33.70
2018-03-01T22:28:56.831Z,33.70
2018-03-01T22:31:24.318Z,33.50
2018-03-01T22:33:52.729Z,34.00
2018-03-01T22:36:22.122Z,34.10
2018-03-01T22:38:50.146Z,34.10
2018-03-01T22:41:18.161Z,34.10
2018-03-01T22:43:45.673Z,34.10
2018-03-01T22:46:13.115Z,34.20
2018-03-01T22:48:40.575Z,34.10
2018-03-01T22:51:08.145Z,34.10
2018-03-01T22:53:35.707Z,34.10
2018-03-01T22:56:03.784Z,34.20
2018-03-01T22:58:31.245Z,34.30
2018-03-01T23:00:59.552Z,34.30
2018-03-01T23:03:27.075Z,34.30
2018-03-01T23:05:54.911Z,34.30
2018-03-01T23:08:22.384Z,34.40
2018-03-01T23:10:50.482Z,34.40
2018-03-01T23:13:18.222Z,34.40
2018-03-01T23:15:45.692Z,34.50
2018-03-01T23:18:13.174Z,34.40
2018-03-01T23:20:40.668Z,34.50
2018-03-01T23:23:08.503Z,34.50
2018-03-01T23:25:36.464Z,34.50
2018-03-01T23:28:04.300Z,34.70
2018-03-01T23:30:31.841Z,36.20
2018-03-01T23:32:59.324Z,35.90
2018-03-01T23:35:27.164Z,35.80
2018-03-01T23:37:55.441Z,35.50
2018-03-01T23:40:24.142Z,34.50
2018-03-01T23:42:51.585Z,34.50
2018-03-01T23:45:19.824Z,34.50
2018-03-01T23:47:47.332Z,34.50
2018-03-01T23:50:15.646Z,34.70
2018-03-01T23:52:43.329Z,34.60
2018-03-01T23:55:11.614Z,34.70
2018-03-01T23:57:40.608Z,34.90
